Aviation Digital Data Service (ADDS)

Output produced by METARs form (1208 UTC 24 March 2017)
found at http://www.aviationweather.gov/adds/metars/
 
TAF HADR 241000Z 2412/2518 34008KT 9999 FEW030 SCT080 
     BECMG 2413/2416 36010KT 8000 -HZ/RA BKN040 SCT080
       
HAAB 241100Z 13007KT 9999 FEW025 26/8 Q1023
TAF HAAB 241000Z 2412/2518 VRB14008KT 9999 SCT040 SCT080 BECMNG 2412/2417 09010KT 9999 BKN030 BKN070 
     BECMG 2414/2417 09012KT 8000 -RA BKN030 BKN080